Time;durP1;ratioP1;P1;durP2;ratioP2;P2;SDS_P1;SDS_P2;PMS_P1;PMS_P2;Temp;Humidity;BMP_temperature;BMP_pressure;BME280_temperature;BME280_humidity;BME280_pressure;Samples;Min_cycle;Max_cycle;Signal;HPM_P1;HPM_P2
2022/11/08 00:01:30;;;;;;;30.97;27.67;;;;;21.50;100032.00;;;;2083402;28;20209;-67
2022/11/08 00:01:34;;;;;;;28.83;25.55;;;;;21.40;100016.00;;;;2083418;28;20216;-67
2022/11/08 00:02:34;;;;;;;32.20;27.03;;;;;21.40;100011.00;;;;2082397;28;20225;-68
2022/11/08 00:03:34;;;;;;;30.03;26.83;;;;;21.40;100021.00;;;;2082880;28;20251;-68
2022/11/08 00:04:35;;;;;;;29.73;26.57;;;;;21.40;100024.00;;;;2083928;28;20213;-68
2022/11/08 00:14:47;;;;;;;25.42;22.83;;;;;21.40;100024.00;;;;2082895;28;20214;-67
2022/11/08 00:15:47;;;;;;;26.00;22.90;;;;;21.40;100018.00;;;;2083438;28;20225;-68
2022/11/08 00:16:48;;;;;;;24.00;21.50;;;;;21.40;100019.00;;;;2083437;28;20201;-68
2022/11/08 00:17:48;;;;;;;24.10;21.50;;;;;21.40;100024.00;;;;2083394;28;20239;-68
2022/11/08 00:18:48;;;;;;;27.80;23.20;;;;;21.40;100015.00;;;;2082525;28;20773;-68
2022/11/08 00:19:49;;;;;;;25.70;22.87;;;;;21.40;100021.00;;;;2082448;28;20210;-68
2022/11/08 00:20:50;;;;;;;25.17;22.53;;;;;21.40;100022.00;;;;2083972;28;20214;-68
2022/11/08 00:21:50;;;;;;;23.50;20.85;;;;;21.40;100023.00;;;;2083812;28;20217;-68
2022/11/08 00:22:50;;;;;;;24.03;21.53;;;;;21.40;100025.00;;;;2084159;28;20209;-68
2022/11/08 00:23:51;;;;;;;23.73;21.00;;;;;21.40;100023.00;;;;2084176;28;20212;-68
2022/11/08 00:24:51;;;;;;;25.43;22.13;;;;;21.40;100024.00;;;;2083587;28;20655;-68
2022/11/08 00:25:53;;;;;;;24.23;21.73;;;;;21.40;100027.00;;;;2083238;28;20208;-68
2022/11/08 00:26:53;;;;;;;23.58;20.10;;;;;21.40;100019.00;;;;2083353;28;20287;-68
2022/11/08 00:27:53;;;;;;;22.50;20.10;;;;;21.40;100029.00;;;;2083327;28;20206;-68
2022/11/08 00:28:54;;;;;;;22.57;20.13;;;;;21.40;100023.00;;;;2087192;28;20224;-68
2022/11/08 00:29:54;;;;;;;21.03;19.03;;;;;21.40;100029.00;;;;2082624;28;20211;-67
2022/11/08 00:30:54;;;;;;;22.27;19.87;;;;;21.40;100025.00;;;;2082243;28;20209;-68
2022/11/08 00:31:55;;;;;;;25.23;19.77;;;;;21.40;100019.00;;;;2078464;28;20301;-68
2022/11/08 00:32:55;;;;;;;22.20;19.00;;;;;21.40;100027.00;;;;2091024;28;20571;-68
2022/11/08 00:33:55;;;;;;;20.70;18.50;;;;;21.40;100027.00;;;;2086468;28;20291;-68
2022/11/08 00:34:56;;;;;;;22.20;19.70;;;;;21.40;100022.00;;;;2084206;28;20206;-68
2022/11/08 00:35:59;;;;;;;22.63;19.20;;;;;21.40;100026.00;;;;2083913;28;20236;-68
2022/11/08 00:37:00;;;;;;;19.88;17.73;;;;;21.30;100025.00;;;;2083719;28;20208;-68
2022/11/08 00:38:00;;;;;;;21.20;18.80;;;;;21.40;100023.00;;;;2083387;28;20238;-68
2022/11/08 00:39:00;;;;;;;23.50;17.50;;;;;21.30;100024.00;;;;2083161;28;20990;-68
2022/11/08 00:40:01;;;;;;;19.27;17.27;;;;;21.40;100025.00;;;;2087987;28;20714;-68
2022/11/08 00:41:01;;;;;;;19.90;17.80;;;;;21.30;100023.00;;;;2084675;28;20283;-68
2022/11/08 00:42:02;;;;;;;19.77;17.63;;;;;21.30;100032.00;;;;2083379;28;20209;-68
2022/11/08 00:43:02;;;;;;;20.10;17.90;;;;;21.30;100027.00;;;;2083466;28;20340;-68
2022/11/08 00:44:03;;;;;;;17.40;15.50;;;;;21.40;100022.00;;;;2083489;28;20213;-68
2022/11/08 00:45:03;;;;;;;19.73;17.63;;;;;21.30;100023.00;;;;2083942;28;20239;-68
2022/11/08 00:46:04;;;;;;;18.90;16.90;;;;;21.40;100033.00;;;;2083081;28;20205;-68
2022/11/08 00:47:04;;;;;;;19.13;16.60;;;;;21.40;100023.00;;;;2083084;28;20218;-68
2022/11/08 00:48:05;;;;;;;19.07;16.30;;;;;21.30;100026.00;;;;2082324;28;20716;-68
2022/11/08 00:49:05;;;;;;;18.30;16.40;;;;;21.30;100015.00;;;;2083262;28;20230;-68
2022/11/08 00:50:06;;;;;;;18.53;16.60;;;;;21.30;100019.00;;;;2080709;28;20227;-68
2022/11/08 00:51:07;;;;;;;19.93;17.27;;;;;21.30;100024.00;;;;2084137;28;20225;-68
2022/11/08 00:52:07;;;;;;;17.37;15.57;;;;;21.30;100017.00;;;;2083572;28;20232;-68
2022/11/08 00:53:07;;;;;;;18.63;16.40;;;;;21.30;100014.00;;;;2083954;28;20439;-68
2022/11/08 00:54:11;;;;;;;16.97;15.23;;;;;21.30;100027.00;;;;2083326;28;20221;-68
2022/11/08 00:55:11;;;;;;;17.20;14.82;;;;;21.30;100013.00;;;;2082693;28;20562;-68
2022/11/08 00:56:12;;;;;;;17.33;15.43;;;;;21.30;100021.00;;;;2083266;28;20224;-68
2022/11/08 00:57:12;;;;;;;17.80;15.50;;;;;21.30;100016.00;;;;2083137;28;20232;-68
2022/11/08 00:58:13;;;;;;;16.57;14.73;;;;;21.30;100016.00;;;;2083212;28;20248;-68
2022/11/08 00:59:14;;;;;;;18.70;15.77;;;;;21.30;100014.00;;;;2083120;28;20220;-68
2022/11/08 01:00:15;;;;;;;15.40;13.90;;;;;21.30;100016.00;;;;2083088;28;20224;-68
2022/11/08 01:01:17;;;;;;;15.73;13.93;;;;;21.30;100019.00;;;;2083312;28;20213;-68
2022/11/08 01:02:17;;;;;;;15.85;14.15;;;;;21.30;100019.00;;;;2082932;28;20220;-68
2022/11/08 01:03:18;;;;;;;16.07;13.90;;;;;21.30;100025.00;;;;2082771;28;20577;-68
2022/11/08 01:04:18;;;;;;;15.73;14.13;;;;;21.30;100020.00;;;;2083147;28;20622;-68
2022/11/08 01:05:19;;;;;;;16.87;14.23;;;;;21.30;100014.00;;;;2083015;28;20207;-67
2022/11/08 01:06:20;;;;;;;17.57;14.17;;;;;21.30;100020.00;;;;2083082;28;20227;-67
2022/11/08 01:07:20;;;;;;;15.38;13.77;;;;;21.30;100023.00;;;;2083126;28;20217;-68
2022/11/08 01:08:21;;;;;;;15.40;13.33;;;;;21.30;100022.00;;;;2083077;28;20217;-68
2022/11/08 01:09:21;;;;;;;15.57;14.07;;;;;21.30;100019.00;;;;2082462;28;20271;-68
2022/11/08 01:10:22;;;;;;;15.50;13.33;;;;;21.30;100032.00;;;;2083136;28;20709;-68
2022/11/08 01:11:23;;;;;;;16.40;14.60;;;;;21.30;100024.00;;;;2083940;28;20912;-68
2022/11/08 01:12:23;;;;;;;14.60;12.50;;;;;21.30;100029.00;;;;2073766;28;20749;-69
2022/11/08 01:13:23;;;;;;;14.23;12.70;;;;;21.30;100015.00;;;;2067086;28;20219;-68
2022/11/08 01:14:24;;;;;;;13.90;12.50;;;;;21.30;100023.00;;;;2082985;28;20226;-68
2022/11/08 01:15:24;;;;;;;15.07;13.50;;;;;21.30;100008.00;;;;2083971;28;20248;-68
2022/11/08 01:16:26;;;;;;;14.83;12.60;;;;;21.30;100019.00;;;;2075801;28;20225;-68
2022/11/08 01:17:26;;;;;;;13.73;12.02;;;;;21.30;100014.00;;;;2084078;28;20270;-68
2022/11/08 01:18:27;;;;;;;14.70;12.20;;;;;21.30;100021.00;;;;2080471;28;20298;-68
2022/11/08 01:19:27;;;;;;;14.10;12.70;;;;;21.30;100015.00;;;;2083100;28;20221;-68
2022/11/08 01:20:27;;;;;;;13.57;12.17;;;;;21.30;100010.00;;;;2083191;28;20206;-68
2022/11/08 01:21:28;;;;;;;14.20;12.20;;;;;21.30;100024.00;;;;2082922;28;20237;-68
2022/11/08 01:22:28;;;;;;;13.17;11.40;;;;;21.30;100012.00;;;;2083269;28;20263;-68
2022/11/08 01:23:28;;;;;;;13.40;11.80;;;;;21.30;100011.00;;;;2084118;28;20209;-68
2022/11/08 01:24:29;;;;;;;13.03;11.73;;;;;21.30;100009.00;;;;2082249;28;20240;-68
2022/11/08 01:25:29;;;;;;;12.57;11.30;;;;;21.20;100020.00;;;;2084783;28;20684;-68
2022/11/08 01:26:30;;;;;;;12.60;11.13;;;;;21.30;100006.00;;;;2085355;28;20296;-67
2022/11/08 01:27:30;;;;;;;13.40;12.00;;;;;21.30;100004.00;;;;2084687;28;20212;-68
2022/11/08 01:28:31;;;;;;;12.30;10.97;;;;;21.30;100011.00;;;;2084228;28;20228;-68
2022/11/08 01:29:32;;;;;;;12.68;10.95;;;;;21.30;100007.00;;;;2084109;28;20304;-68
2022/11/08 01:30:36;;;;;;;12.30;10.93;;;;;21.30;99998.00;;;;2084218;28;20218;-68
2022/11/08 01:31:36;;;;;;;12.70;10.95;;;;;21.30;100008.00;;;;2085304;28;20213;-68
2022/11/08 01:32:37;;;;;;;12.37;11.07;;;;;21.30;99995.00;;;;2085207;28;20224;-68
2022/11/08 01:33:37;;;;;;;12.00;10.70;;;;;21.30;99996.00;;;;2084799;28;20213;-67
2022/11/08 01:34:37;;;;;;;11.83;10.33;;;;;21.20;99996.00;;;;2084267;28;20208;-68
2022/11/08 01:35:38;;;;;;;12.03;10.40;;;;;21.20;99997.00;;;;2084599;28;20213;-68
2022/11/08 01:36:38;;;;;;;12.33;10.30;;;;;21.30;99996.00;;;;2084617;28;20212;-68
2022/11/08 01:37:38;;;;;;;12.10;10.80;;;;;21.20;99993.00;;;;2083376;28;20293;-68
2022/11/08 01:38:39;;;;;;;10.97;9.83;;;;;21.30;99991.00;;;;2083952;28;20680;-68
2022/11/08 01:39:39;;;;;;;11.70;10.27;;;;;21.30;99999.00;;;;2084874;28;20709;-68
2022/11/08 01:40:45;;;;;;;11.53;9.67;;;;;21.30;99989.00;;;;2088876;28;20291;-68
2022/11/08 01:41:46;;;;;;;11.27;10.07;;;;;21.20;99993.00;;;;2084145;28;20299;-68
2022/11/08 01:42:46;;;;;;;13.27;10.47;;;;;21.30;99989.00;;;;2084508;28;20213;-68
2022/11/08 01:43:51;;;;;;;11.03;9.43;;;;;21.30;99984.00;;;;2085101;28;20237;-68
2022/11/08 01:44:58;;;;;;;11.18;9.60;;;;;21.20;99975.00;;;;2085218;28;20220;-68
2022/11/08 01:46:17;;;;;;;11.32;9.15;;;;;21.20;99986.00;;;;2084255;28;20694;-68
2022/11/08 01:47:17;;;;;;;10.95;9.85;;;;;21.20;99982.00;;;;2084586;28;20226;-68
2022/11/08 01:48:18;;;;;;;10.83;9.60;;;;;21.20;99978.00;;;;2084504;28;20219;-68
2022/11/08 01:49:31;;;;;;;12.50;10.60;;;;;21.20;99975.00;;;;2084540;28;20232;-68
2022/11/08 01:50:31;;;;;;;10.90;9.65;;;;;21.20;99973.00;;;;2083510;28;20251;-67
2022/11/08 01:51:35;;;;;;;10.80;9.30;;;;;21.20;99971.00;;;;2083311;28;20205;-68
2022/11/08 01:52:45;;;;;;;10.45;9.23;;;;;21.20;99968.00;;;;2083112;28;20301;-68
2022/11/08 01:53:46;;;;;;;11.98;10.40;;;;;21.20;99969.00;;;;2074932;28;20209;-68
2022/11/08 01:54:53;;;;;;;10.20;9.10;;;;;21.20;99975.00;;;;2075632;28;20665;-68
2022/11/08 01:55:53;;;;;;;12.30;9.18;;;;;21.20;99964.00;;;;2076109;28;20217;-68
2022/11/08 01:56:54;;;;;;;10.27;9.10;;;;;21.20;99973.00;;;;2083128;28;20236;-68
2022/11/08 01:58:05;;;;;;;8.70;7.90;;;;;21.20;99964.00;;;;2075346;28;20225;-68
2022/11/08 01:59:06;;;;;;;10.15;9.00;;;;;21.20;99975.00;;;;2083290;28;20225;-68
2022/11/08 02:00:09;;;;;;;11.75;8.50;;;;;21.20;99979.00;;;;2083985;28;20216;-68
2022/11/08 02:01:09;;;;;;;9.80;8.63;;;;;21.20;99971.00;;;;2084046;28;20209;-68
2022/11/08 02:02:09;;;;;;;8.93;8.00;;;;;21.20;99968.00;;;;2075641;28;20695;-68
2022/11/08 02:03:11;;;;;;;10.07;8.67;;;;;21.20;99976.00;;;;2060074;28;20218;-68
2022/11/08 02:04:11;;;;;;;9.23;8.32;;;;;21.20;99968.00;;;;2076620;28;20737;-68
2022/11/08 02:05:23;;;;;;;8.87;7.73;;;;;21.20;99968.00;;;;2084546;28;20219;-68
2022/11/08 02:06:23;;;;;;;8.95;8.07;;;;;21.20;99963.00;;;;2068820;28;20214;-68
2022/11/08 02:07:24;;;;;;;10.27;8.13;;;;;21.20;99966.00;;;;2076768;28;20565;-68
2022/11/08 02:08:35;;;;;;;8.80;7.90;;;;;21.20;99971.00;;;;2076019;28;20643;-68
2022/11/08 02:09:35;;;;;;;10.00;7.95;;;;;21.20;99972.00;;;;2077761;28;20217;-68
2022/11/08 02:10:40;;;;;;;9.03;8.13;;;;;21.20;99952.00;;;;2084456;28;20217;-67
2022/11/08 02:11:40;;;;;;;9.70;7.80;;;;;21.20;99958.00;;;;2067734;28;20583;-68
2022/11/08 02:12:40;;;;;;;8.60;7.20;;;;;21.20;99974.00;;;;2058856;28;20223;-67
2022/11/08 02:13:41;;;;;;;8.13;7.30;;;;;21.10;99969.00;;;;2067257;28;20753;-68
2022/11/08 02:14:41;;;;;;;9.00;7.77;;;;;21.20;99968.00;;;;2079534;28;20209;-68
2022/11/08 02:15:42;;;;;;;8.90;8.00;;;;;21.20;99962.00;;;;2084759;28;20268;-68
2022/11/08 02:16:42;;;;;;;8.20;7.30;;;;;21.20;99970.00;;;;2085064;28;20256;-68
2022/11/08 02:17:43;;;;;;;8.33;7.33;;;;;21.20;99974.00;;;;2085043;28;20461;-68
2022/11/08 02:18:43;;;;;;;8.80;7.47;;;;;21.20;99965.00;;;;2084980;28;20212;-68
2022/11/08 02:19:45;;;;;;;8.73;7.30;;;;;21.20;99956.00;;;;2083557;28;20244;-67
2022/11/08 02:20:50;;;;;;;8.80;7.47;;;;;21.20;99968.00;;;;2074637;28;20300;-68
2022/11/08 02:21:54;;;;;;;9.43;7.30;;;;;21.20;99969.00;;;;2083196;28;20324;-68
2022/11/08 02:23:03;;;;;;;8.45;7.30;;;;;21.20;99965.00;;;;2076170;28;20268;-68
2022/11/08 02:24:07;;;;;;;7.97;6.70;;;;;21.10;99942.00;;;;2062751;28;20297;-68
2022/11/08 02:25:07;;;;;;;8.75;6.97;;;;;21.20;99959.00;;;;2077323;28;20217;-68
2022/11/08 02:26:07;;;;;;;8.50;7.30;;;;;21.20;99951.00;;;;2076251;28;20226;-68
2022/11/08 02:27:08;;;;;;;8.00;6.90;;;;;21.20;99955.00;;;;2076296;28;20761;-68
2022/11/08 02:28:09;;;;;;;8.48;6.93;;;;;21.10;99950.00;;;;2068114;28;20237;-68
2022/11/08 02:29:27;;;;;;;7.60;6.63;;;;;21.10;99952.00;;;;2083440;28;20213;-68
2022/11/08 02:30:32;;;;;;;7.60;6.40;;;;;21.10;99947.00;;;;2084757;28;20270;-68
2022/11/08 02:31:32;;;;;;;8.13;7.32;;;;;21.10;99949.00;;;;2084618;28;20231;-67
2022/11/08 02:32:39;;;;;;;8.00;7.20;;;;;21.10;99950.00;;;;2084671;28;20216;-68
2022/11/08 02:33:40;;;;;;;8.30;7.20;;;;;21.20;99944.00;;;;2084083;28;20223;-68
2022/11/08 02:34:43;;;;;;;7.60;6.60;;;;;21.20;99946.00;;;;2083677;28;20212;-68
2022/11/08 02:35:50;;;;;;;7.63;6.93;;;;;21.20;99942.00;;;;2067492;28;20214;-68
2022/11/08 02:36:51;;;;;;;7.40;6.00;;;;;21.20;99946.00;;;;2060458;28;20215;-68
2022/11/08 02:37:51;;;;;;;8.23;6.33;;;;;21.10;99936.00;;;;2066903;28;20210;-68
2022/11/08 02:38:53;;;;;;;6.60;5.90;;;;;21.10;99946.00;;;;2083096;28;20253;-68
2022/11/08 02:39:53;;;;;;;7.38;6.57;;;;;21.10;99950.00;;;;2085721;28;20221;-68
2022/11/08 02:40:55;;;;;;;6.80;6.10;;;;;21.10;99942.00;;;;2084315;28;20225;-68
2022/11/08 02:41:55;;;;;;;8.30;5.78;;;;;21.10;99944.00;;;;2084498;28;20254;-68
2022/11/08 02:42:55;;;;;;;8.17;6.43;;;;;21.10;99943.00;;;;2083591;28;20243;-68
2022/11/08 02:43:56;;;;;;;6.40;5.63;;;;;21.10;99948.00;;;;2084666;28;20209;-68
2022/11/08 02:44:56;;;;;;;6.13;5.23;;;;;21.10;99944.00;;;;2084146;28;20212;-68
2022/11/08 02:45:57;;;;;;;6.47;5.43;;;;;21.20;99943.00;;;;2083868;28;20246;-68
2022/11/08 02:46:58;;;;;;;7.47;6.47;;;;;21.10;99942.00;;;;2084023;28;20268;-68
2022/11/08 02:47:58;;;;;;;6.23;5.60;;;;;21.10;99937.00;;;;2083844;28;20506;-68
2022/11/08 02:48:58;;;;;;;6.57;5.63;;;;;21.10;99941.00;;;;2084690;28;20582;-68
2022/11/08 02:49:59;;;;;;;6.20;5.60;;;;;21.10;99938.00;;;;2084928;28;20625;-68
2022/11/08 02:50:59;;;;;;;7.57;6.17;;;;;21.10;99944.00;;;;2084158;28;20719;-67
2022/11/08 02:51:59;;;;;;;6.00;5.40;;;;;21.10;99944.00;;;;2083754;28;20672;-68
2022/11/08 02:52:59;;;;;;;6.10;5.07;;;;;21.10;99945.00;;;;2083543;28;20219;-68
2022/11/08 02:54:00;;;;;;;5.57;4.97;;;;;21.10;99940.00;;;;2084064;28;20244;-68
2022/11/08 02:55:00;;;;;;;8.57;6.03;;;;;21.10;99936.00;;;;2083897;28;20213;-68
2022/11/08 02:56:00;;;;;;;5.57;5.00;;;;;21.10;99933.00;;;;2083865;28;20252;-68
2022/11/08 02:57:01;;;;;;;6.27;5.20;;;;;21.10;99929.00;;;;2084380;28;20217;-67
2022/11/08 02:58:01;;;;;;;6.00;5.40;;;;;21.10;99927.00;;;;2084489;28;20214;-68
2022/11/08 02:59:02;;;;;;;6.17;4.80;;;;;21.10;99927.00;;;;2084570;28;20252;-68
2022/11/08 03:00:02;;;;;;;5.97;5.33;;;;;21.10;99926.00;;;;2084553;28;20874;-68
2022/11/08 03:01:03;;;;;;;6.13;5.53;;;;;21.10;99921.00;;;;2084485;28;20711;-68
2022/11/08 03:02:03;;;;;;;6.73;5.07;;;;;21.10;99926.00;;;;2083608;28;20213;-68
2022/11/08 03:03:03;;;;;;;6.20;5.17;;;;;21.10;99920.00;;;;2082742;28;20269;-67
2022/11/08 03:04:04;;;;;;;6.53;5.20;;;;;21.10;99918.00;;;;2083547;28;20213;-67
2022/11/08 03:05:05;;;;;;;6.30;5.70;;;;;21.10;99922.00;;;;2083849;28;20300;-68
2022/11/08 03:06:05;;;;;;;5.63;5.13;;;;;21.10;99922.00;;;;2084500;28;20292;-67
2022/11/08 03:07:05;;;;;;;6.80;5.20;;;;;21.10;99921.00;;;;2084648;28;20637;-67
2022/11/08 03:08:05;;;;;;;6.23;5.30;;;;;21.10;99918.00;;;;2084787;28;21256;-68
2022/11/08 03:09:06;;;;;;;6.80;5.17;;;;;21.10;99916.00;;;;2084309;28;20733;-68
2022/11/08 03:10:06;;;;;;;7.60;5.37;;;;;21.10;99906.00;;;;2084036;28;20216;-68
2022/11/08 03:11:07;;;;;;;6.60;4.90;;;;;21.10;99908.00;;;;2081679;28;20304;-68
2022/11/08 03:12:07;;;;;;;5.37;4.87;;;;;21.10;99916.00;;;;2083379;28;21011;-68
2022/11/08 03:13:07;;;;;;;5.80;5.20;;;;;21.10;99900.00;;;;2083813;28;20258;-68
2022/11/08 03:14:08;;;;;;;5.30;4.80;;;;;21.10;99901.00;;;;2083084;28;20221;-68
2022/11/08 03:15:09;;;;;;;4.67;4.27;;;;;21.10;99908.00;;;;2083791;28;20670;-66
2022/11/08 03:16:09;;;;;;;6.00;4.43;;;;;21.10;99899.00;;;;2083951;28;20304;-67
2022/11/08 03:17:09;;;;;;;5.40;4.90;;;;;21.10;99895.00;;;;2075466;28;20202;-67
2022/11/08 03:18:10;;;;;;;5.87;5.07;;;;;21.10;99896.00;;;;2083546;28;20251;-68
2022/11/08 03:19:10;;;;;;;4.20;3.80;;;;;21.10;99893.00;;;;2083653;28;20217;-68
2022/11/08 03:20:11;;;;;;;4.97;4.40;;;;;21.10;99900.00;;;;2083712;28;20212;-68
2022/11/08 03:21:11;;;;;;;7.73;4.53;;;;;21.10;99904.00;;;;2083521;28;20624;-67
2022/11/08 03:22:11;;;;;;;5.10;4.10;;;;;21.10;99900.00;;;;2083498;28;20213;-68
2022/11/08 03:23:12;;;;;;;5.00;4.50;;;;;21.10;99895.00;;;;2084637;28;20241;-67
2022/11/08 03:24:12;;;;;;;5.53;4.30;;;;;21.10;99896.00;;;;2084661;28;20218;-68
2022/11/08 03:25:12;;;;;;;5.17;4.67;;;;;21.10;99895.00;;;;2084545;28;20247;-68
2022/11/08 03:26:13;;;;;;;5.97;3.73;;;;;21.10;99900.00;;;;2083922;28;20212;-68
2022/11/08 03:27:14;;;;;;;4.67;4.17;;;;;21.10;99891.00;;;;2083392;28;20213;-68
2022/11/08 03:28:14;;;;;;;4.73;3.77;;;;;21.10;99893.00;;;;2083680;28;20232;-67
2022/11/08 03:29:14;;;;;;;5.10;4.37;;;;;21.00;99889.00;;;;2083654;28;21102;-68
2022/11/08 03:30:15;;;;;;;4.37;3.60;;;;;21.00;99888.00;;;;2083713;28;20206;-68
2022/11/08 03:31:15;;;;;;;5.23;4.27;;;;;21.00;99882.00;;;;2084255;28;20213;-69
2022/11/08 03:32:15;;;;;;;4.70;4.20;;;;;21.00;99884.00;;;;2084219;28;20297;-68
2022/11/08 03:33:16;;;;;;;4.80;3.93;;;;;21.00;99877.00;;;;2084639;28;20648;-68
2022/11/08 03:34:16;;;;;;;5.67;3.87;;;;;21.00;99883.00;;;;2083917;28;20572;-68
2022/11/08 03:35:16;;;;;;;4.47;3.77;;;;;21.00;99885.00;;;;2084188;28;20760;-68
2022/11/08 03:36:16;;;;;;;4.20;3.80;;;;;21.00;99866.00;;;;2083686;28;20205;-68
2022/11/08 03:37:17;;;;;;;5.10;4.17;;;;;21.00;99869.00;;;;2083579;28;20243;-68
2022/11/08 03:38:17;;;;;;;4.60;3.77;;;;;21.00;99864.00;;;;2083755;28;20206;-68
2022/11/08 03:39:17;;;;;;;4.37;3.87;;;;;21.00;99871.00;;;;2083684;28;20214;-68
2022/11/08 03:40:18;;;;;;;4.37;3.50;;;;;21.00;99854.00;;;;2087423;28;20197;-68
2022/11/08 03:41:18;;;;;;;4.03;3.63;;;;;21.00;99852.00;;;;2083571;28;20216;-68
2022/11/08 03:42:19;;;;;;;4.30;3.47;;;;;21.00;99858.00;;;;2083138;28;20226;-68
2022/11/08 03:43:19;;;;;;;4.47;3.60;;;;;21.00;99852.00;;;;2083005;28;20210;-68
2022/11/08 03:44:19;;;;;;;4.30;3.90;;;;;21.00;99850.00;;;;2084016;28;20251;-68
2022/11/08 03:45:20;;;;;;;5.70;3.87;;;;;21.00;99851.00;;;;2083514;28;20288;-68
2022/11/08 03:46:20;;;;;;;4.30;3.80;;;;;21.00;99855.00;;;;2083248;28;20220;-68
2022/11/08 03:47:20;;;;;;;4.03;3.63;;;;;21.00;99855.00;;;;2083366;28;20684;-68
2022/11/08 03:48:22;;;;;;;4.67;3.67;;;;;21.00;99859.00;;;;2082740;28;20487;-68
2022/11/08 03:49:22;;;;;;;5.13;3.70;;;;;21.00;99860.00;;;;2083247;28;20304;-68
2022/11/08 03:50:23;;;;;;;5.67;3.80;;;;;21.00;99857.00;;;;2083380;28;20217;-68
2022/11/08 03:51:23;;;;;;;4.93;3.70;;;;;21.00;99848.00;;;;2083263;28;20245;-68
2022/11/08 03:52:23;;;;;;;5.23;4.23;;;;;21.00;99852.00;;;;2083338;28;20271;-68
2022/11/08 03:53:23;;;;;;;3.87;3.33;;;;;21.00;99855.00;;;;2084073;28;20217;-68
2022/11/08 03:54:24;;;;;;;4.77;3.23;;;;;21.00;99858.00;;;;2084068;28;20279;-68
2022/11/08 03:55:25;;;;;;;4.30;3.43;;;;;21.00;99853.00;;;;2083358;28;20618;-69
2022/11/08 03:56:25;;;;;;;3.25;2.95;;;;;21.00;99851.00;;;;2083775;28;20818;-68
2022/11/08 03:57:26;;;;;;;4.10;3.47;;;;;21.00;99856.00;;;;2083121;28;20228;-68
2022/11/08 03:58:26;;;;;;;6.07;3.67;;;;;21.00;99849.00;;;;2083092;28;20248;-68
2022/11/08 03:59:26;;;;;;;4.27;3.20;;;;;21.00;99856.00;;;;2082563;28;20276;-68
2022/11/08 04:00:27;;;;;;;4.50;3.67;;;;;21.00;99843.00;;;;2083002;28;20336;-68
2022/11/08 04:01:27;;;;;;;4.30;3.07;;;;;21.00;99848.00;;;;2083452;28;20770;-68
2022/11/08 04:02:28;;;;;;;7.10;3.40;;;;;21.00;99857.00;;;;2083249;28;20266;-68
2022/11/08 04:03:28;;;;;;;4.33;3.37;;;;;21.00;99846.00;;;;2083603;28;20209;-68
2022/11/08 04:04:28;;;;;;;4.30;3.47;;;;;21.00;99858.00;;;;2083380;28;20237;-68
2022/11/08 04:05:31;;;;;;;3.97;3.10;;;;;21.00;99852.00;;;;2084212;28;20220;-68
2022/11/08 04:06:31;;;;;;;3.45;3.15;;;;;21.00;99855.00;;;;2086300;28;20217;-68
2022/11/08 04:07:31;;;;;;;4.33;3.37;;;;;21.00;99859.00;;;;2083689;28;20216;-68
2022/11/08 04:08:32;;;;;;;3.00;2.70;;;;;21.00;99853.00;;;;2083553;28;20235;-68
2022/11/08 04:09:32;;;;;;;3.53;2.80;;;;;21.00;99852.00;;;;2083960;28;20213;-68
2022/11/08 04:10:32;;;;;;;4.27;3.00;;;;;21.00;99852.00;;;;2084355;28;20218;-68
2022/11/08 04:15:29;;;;;;;3.22;2.90;;;;;21.00;99854.00;;;;2083251;28;20209;-68
2022/11/08 04:16:31;;;;;;;3.80;2.83;;;;;21.00;99844.00;;;;2083467;28;20201;-68
2022/11/08 04:21:28;;;;;;;2.70;2.25;;;;;20.90;99842.00;;;;2082792;28;20281;-68
2022/11/08 04:22:28;;;;;;;4.23;2.60;;;;;20.90;99846.00;;;;2083047;28;20209;-68
2022/11/08 04:23:29;;;;;;;3.80;2.83;;;;;20.90;99840.00;;;;2083021;28;20233;-68
2022/11/08 04:24:29;;;;;;;3.20;2.70;;;;;20.90;99830.00;;;;2084275;28;20271;-68
2022/11/08 04:25:29;;;;;;;3.57;2.73;;;;;21.00;99832.00;;;;2084138;28;20536;-68
2022/11/08 04:26:30;;;;;;;3.80;2.50;;;;;21.00;99832.00;;;;2084262;28;20248;-68
2022/11/08 04:27:30;;;;;;;2.80;2.50;;;;;21.00;99835.00;;;;2083871;28;20211;-68
2022/11/08 04:28:32;;;;;;;2.93;2.30;;;;;20.90;99826.00;;;;2083517;28;20358;-68
2022/11/08 04:29:32;;;;;;;3.35;2.63;;;;;20.90;99836.00;;;;2083451;28;20209;-68
2022/11/08 04:30:32;;;;;;;5.73;2.70;;;;;20.90;99826.00;;;;2083311;28;20220;-68
2022/11/08 04:31:33;;;;;;;3.70;2.57;;;;;20.90;99839.00;;;;2083500;28;20213;-68
2022/11/08 04:32:33;;;;;;;3.30;2.53;;;;;20.90;99834.00;;;;2083896;28;20228;-68
2022/11/08 04:33:33;;;;;;;4.20;2.20;;;;;20.90;99835.00;;;;2083584;28;20214;-69
2022/11/08 04:34:34;;;;;;;2.90;2.40;;;;;20.90;99834.00;;;;2083506;28;20246;-68
2022/11/08 04:35:34;;;;;;;2.80;2.50;;;;;21.00;99833.00;;;;2084158;28;20213;-68
2022/11/08 04:36:34;;;;;;;4.20;2.70;;;;;20.90;99829.00;;;;2083102;28;20212;-69
2022/11/08 04:37:35;;;;;;;2.80;2.33;;;;;20.90;99830.00;;;;2082724;28;20215;-68
2022/11/08 04:38:35;;;;;;;2.77;2.40;;;;;20.90;99829.00;;;;2082743;28;20220;-68
2022/11/08 04:39:35;;;;;;;3.33;2.57;;;;;20.90;99831.00;;;;2083354;28;20249;-68
2022/11/08 04:40:36;;;;;;;3.30;2.70;;;;;20.90;99828.00;;;;2088225;28;20223;-68
2022/11/08 04:41:36;;;;;;;2.93;2.50;;;;;20.90;99818.00;;;;2083210;28;20212;-68
2022/11/08 04:42:36;;;;;;;4.03;2.60;;;;;20.90;99826.00;;;;2082273;28;20221;-68
2022/11/08 04:43:37;;;;;;;3.37;2.13;;;;;20.90;99821.00;;;;2074615;28;20302;-68
2022/11/08 04:44:37;;;;;;;2.50;2.30;;;;;20.90;99822.00;;;;2074777;28;20246;-68
2022/11/08 04:45:38;;;;;;;3.57;2.60;;;;;20.90;99813.00;;;;2083475;28;20217;-68
2022/11/08 04:46:38;;;;;;;2.97;2.57;;;;;20.90;99811.00;;;;2083360;28;20222;-69
2022/11/08 04:47:38;;;;;;;3.37;2.27;;;;;20.90;99819.00;;;;2076215;28;20244;-68
2022/11/08 04:48:39;;;;;;;4.43;2.67;;;;;20.90;99812.00;;;;2083967;28;20259;-68
2022/11/08 04:49:39;;;;;;;3.10;2.37;;;;;20.90;99809.00;;;;2081318;28;20221;-68
2022/11/08 04:50:40;;;;;;;2.27;2.00;;;;;20.90;99810.00;;;;2083146;28;20266;-68
2022/11/08 04:51:40;;;;;;;3.37;2.50;;;;;20.90;99808.00;;;;2082315;28;20218;-69
2022/11/08 04:52:40;;;;;;;3.40;2.63;;;;;20.90;99810.00;;;;2082175;28;20263;-68
2022/11/08 04:53:41;;;;;;;2.70;2.30;;;;;20.90;99801.00;;;;2084086;28;20218;-68
2022/11/08 04:54:43;;;;;;;3.17;2.27;;;;;20.90;99808.00;;;;2084110;28;20243;-68
2022/11/08 04:55:43;;;;;;;3.47;2.13;;;;;20.90;99799.00;;;;2083374;28;20223;-68
2022/11/08 04:56:44;;;;;;;3.23;2.30;;;;;20.90;99795.00;;;;2083990;28;20224;-68
2022/11/08 04:57:44;;;;;;;2.27;2.00;;;;;20.90;99799.00;;;;2083329;28;20229;-68
2022/11/08 04:58:46;;;;;;;3.50;2.00;;;;;20.90;99803.00;;;;2083356;28;20224;-68
2022/11/08 04:59:46;;;;;;;2.38;2.10;;;;;20.90;99807.00;;;;2083280;28;20249;-68
2022/11/08 05:00:47;;;;;;;2.80;2.47;;;;;20.90;99802.00;;;;2082480;28;20214;-68
2022/11/08 05:01:47;;;;;;;2.70;2.20;;;;;20.90;99797.00;;;;2084568;28;20256;-68
2022/11/08 05:02:47;;;;;;;2.40;2.20;;;;;20.90;99802.00;;;;2085641;28;20217;-68
2022/11/08 05:03:49;;;;;;;5.40;2.20;;;;;20.90;99790.00;;;;2085403;28;20228;-68
2022/11/08 05:04:49;;;;;;;2.63;2.17;;;;;20.90;99775.00;;;;2085794;28;20220;-68
2022/11/08 05:05:49;;;;;;;2.40;1.93;;;;;20.90;99764.00;;;;2084978;28;20240;-68
2022/11/08 05:06:50;;;;;;;3.30;2.30;;;;;20.90;99765.00;;;;2084386;28;20220;-68
2022/11/08 05:07:50;;;;;;;2.73;2.30;;;;;20.90;99760.00;;;;2084774;28;20261;-68
2022/11/08 05:08:50;;;;;;;2.63;1.97;;;;;20.90;99766.00;;;;2084858;28;20210;-68
2022/11/08 05:09:50;;;;;;;2.70;2.10;;;;;20.90;99771.00;;;;2084665;28;20271;-68
2022/11/08 05:10:51;;;;;;;2.63;2.00;;;;;20.90;99770.00;;;;2084887;28;20229;-68
2022/11/08 05:11:51;;;;;;;4.13;2.20;;;;;20.80;99760.00;;;;2085138;28;20224;-69
2022/11/08 05:12:54;;;;;;;4.67;2.37;;;;;20.90;99770.00;;;;2085161;28;20213;-70
2022/11/08 05:13:55;;;;;;;4.28;2.00;;;;;20.90;99765.00;;;;2084401;28;20692;-67
2022/11/08 05:14:55;;;;;;;3.47;2.20;;;;;20.90;99767.00;;;;2083684;28;20216;-68
2022/11/08 05:16:04;;;;;;;5.03;1.97;;;;;21.00;99765.00;;;;2082675;28;20579;-73
2022/11/08 05:17:04;;;;;;;2.90;1.60;;;;;21.00;99762.00;;;;2084980;28;20213;-69
2022/11/08 05:18:04;;;;;;;2.67;1.70;;;;;20.90;99759.00;;;;2084896;28;20213;-69
2022/11/08 05:19:05;;;;;;;2.10;1.90;;;;;20.90;99762.00;;;;2084845;28;20210;-69